createdAt,value
2022-10-18T00:01:47.429Z,53.20
2022-10-18T00:04:50.851Z,52.60
2022-10-18T00:07:54.102Z,52.43
2022-10-18T00:10:59.141Z,52.09
2022-10-18T00:14:02.827Z,52.30
2022-10-18T00:17:06.199Z,52.29
2022-10-18T00:20:10.871Z,52.57
2022-10-18T00:23:14.120Z,54.48
2022-10-18T00:26:22.162Z,54.12
2022-10-18T00:29:25.513Z,54.20
2022-10-18T00:32:29.064Z,53.99
2022-10-18T00:35:35.211Z,53.42
2022-10-18T00:38:39.079Z,53.17
2022-10-18T00:41:43.924Z,52.87
2022-10-18T00:45:15.643Z,52.50
2022-10-18T00:48:21.201Z,53.30
2022-10-18T00:51:28.075Z,53.82
2022-10-18T00:54:34.839Z,53.01
2022-10-18T00:57:40.858Z,52.40
2022-10-18T01:00:44.284Z,52.75
2022-10-18T01:03:47.589Z,52.43
2022-10-18T01:06:59.124Z,53.06
2022-10-18T01:10:10.904Z,53.24
2022-10-18T01:13:26.396Z,53.72
2022-10-18T01:16:37.863Z,54.82
2022-10-18T01:20:17.341Z,54.33
2022-10-18T01:23:29.678Z,53.81
2022-10-18T01:26:50.501Z,53.96
2022-10-18T01:30:10.118Z,54.17
2022-10-18T01:33:27.802Z,54.05
2022-10-18T01:36:35.053Z,53.47
2022-10-18T01:39:42.806Z,53.33
2022-10-18T01:42:47.683Z,53.82
2022-10-18T01:45:52.059Z,53.03
2022-10-18T01:48:57.548Z,52.77
2022-10-18T01:52:00.791Z,52.96
2022-10-18T01:55:05.829Z,53.38
2022-10-18T01:58:20.381Z,52.26
2022-10-18T02:01:32.646Z,52.19
2022-10-18T02:04:45.034Z,52.45
2022-10-18T02:08:00.427Z,52.71
2022-10-18T02:11:18.366Z,53.50
2022-10-18T02:14:24.076Z,52.93
2022-10-18T02:17:29.942Z,52.28
2022-10-18T02:20:36.598Z,52.10
2022-10-18T02:23:40.421Z,52.62
2022-10-18T02:26:43.866Z,52.87
2022-10-18T02:29:47.769Z,52.29
2022-10-18T02:32:58.600Z,51.70
2022-10-18T02:36:08.325Z,51.23
2022-10-18T02:39:15.570Z,51.61
2022-10-18T02:42:18.853Z,51.88
2022-10-18T02:45:22.648Z,51.89
2022-10-18T02:48:25.906Z,51.88
2022-10-18T02:51:30.527Z,51.36
2022-10-18T02:54:33.900Z,51.53
2022-10-18T02:57:37.445Z,51.31
2022-10-18T03:00:40.670Z,51.21
2022-10-18T03:03:43.802Z,51.26
2022-10-18T03:06:48.430Z,50.99
2022-10-18T03:09:51.671Z,50.96
2022-10-18T03:12:54.811Z,50.95
2022-10-18T03:15:58.011Z,51.22
2022-10-18T03:19:01.305Z,50.97
2022-10-18T03:22:06.129Z,51.34
2022-10-18T03:25:09.779Z,53.17
2022-10-18T03:28:13.057Z,55.55
2022-10-18T03:31:16.276Z,55.61
2022-10-18T03:34:19.650Z,56.66
2022-10-18T03:37:24.360Z,56.94
2022-10-18T03:40:27.655Z,55.52
2022-10-18T03:43:31.043Z,55.24
2022-10-18T03:46:34.280Z,54.38
2022-10-18T03:49:37.580Z,54.49
2022-10-18T03:52:42.192Z,55.33
2022-10-18T03:55:45.472Z,54.71
2022-10-18T03:58:48.639Z,54.83
2022-10-18T04:01:51.982Z,55.45
2022-10-18T04:04:55.260Z,55.73
2022-10-18T04:07:59.972Z,57.13
2022-10-18T04:11:08.393Z,55.99
2022-10-18T04:14:11.633Z,56.08
2022-10-18T04:17:14.895Z,55.57
2022-10-18T04:20:18.647Z,55.19
2022-10-18T04:23:23.223Z,55.45
2022-10-18T04:26:26.502Z,55.33
2022-10-18T04:29:29.701Z,56.34
2022-10-18T04:32:32.972Z,55.09
2022-10-18T04:35:36.180Z,55.26
2022-10-18T04:38:40.903Z,54.72
2022-10-18T04:41:44.379Z,54.89
2022-10-18T04:44:47.676Z,54.40
2022-10-18T04:47:50.851Z,54.71
2022-10-18T04:50:54.189Z,54.49
2022-10-18T04:53:58.789Z,53.92
2022-10-18T04:57:01.978Z,54.19
2022-10-18T05:00:06.303Z,55.53
2022-10-18T05:03:09.903Z,55.04
2022-10-18T05:06:13.187Z,55.04
2022-10-18T05:09:18.020Z,54.29
2022-10-18T05:12:22.279Z,54.54
2022-10-18T05:15:25.528Z,54.31
2022-10-18T05:18:28.726Z,54.37
2022-10-18T05:21:31.956Z,54.64
2022-10-18T05:24:36.581Z,53.90
2022-10-18T05:27:39.800Z,53.40
2022-10-18T05:30:43.136Z,54.42
2022-10-18T05:33:46.301Z,53.49
2022-10-18T05:36:50.181Z,54.86
2022-10-18T05:39:54.772Z,54.49
2022-10-18T05:42:57.945Z,53.10
2022-10-18T05:46:01.238Z,54.19
2022-10-18T05:49:04.544Z,53.90
2022-10-18T05:52:07.755Z,52.85
2022-10-18T05:55:12.408Z,53.77
2022-10-18T05:58:15.615Z,52.93
2022-10-18T06:01:18.896Z,50.85
2022-10-18T06:04:22.347Z,51.78
2022-10-18T06:07:25.608Z,49.71
2022-10-18T06:10:30.266Z,49.70
2022-10-18T06:13:33.933Z,48.53
2022-10-18T06:19:45.455Z,48.83
2022-10-18T06:22:48.685Z,49.42
2022-10-18T06:25:53.342Z,48.41
2022-10-18T06:28:56.799Z,48.81
2022-10-18T06:32:00.041Z,47.68
2022-10-18T06:35:03.404Z,48.34
2022-10-18T06:38:07.430Z,47.40
2022-10-18T06:41:12.244Z,46.26
2022-10-18T06:44:15.525Z,46.52
2022-10-18T06:47:18.741Z,46.78
2022-10-18T06:50:22.023Z,45.88
2022-10-18T06:53:25.454Z,46.73
2022-10-18T06:56:30.352Z,45.76
2022-10-18T06:59:33.557Z,45.66
2022-10-18T07:02:37.546Z,45.34
2022-10-18T07:05:40.812Z,44.19
2022-10-18T07:08:44.861Z,44.82
2022-10-18T07:11:49.560Z,43.40
2022-10-18T07:14:52.693Z,43.03
2022-10-18T07:17:55.916Z,42.57
2022-10-18T07:20:59.091Z,43.06
2022-10-18T07:24:02.315Z,42.32
2022-10-18T07:27:07.110Z,41.42
2022-10-18T07:30:12.359Z,42.23
2022-10-18T07:33:15.556Z,42.54
2022-10-18T07:36:21.167Z,40.96
2022-10-18T07:39:24.622Z,41.50
2022-10-18T07:42:29.174Z,41.84
2022-10-18T07:45:33.343Z,41.37
2022-10-18T07:48:36.546Z,41.28
2022-10-18T07:51:39.724Z,40.54
2022-10-18T07:54:42.984Z,40.38
2022-10-18T07:57:47.637Z,40.64
2022-10-18T08:00:50.835Z,41.09
2022-10-18T08:03:54.418Z,39.84
2022-10-18T08:06:57.641Z,41.53
2022-10-18T08:10:00.899Z,40.86
2022-10-18T08:13:05.533Z,39.48
2022-10-18T08:16:11.081Z,38.80
2022-10-18T08:19:14.247Z,38.83
2022-10-18T08:22:17.471Z,39.01
2022-10-18T08:25:20.725Z,38.22
2022-10-18T08:28:25.360Z,38.23
2022-10-18T08:31:28.641Z,38.59
2022-10-18T08:34:31.960Z,38.34
2022-10-18T08:37:35.639Z,38.45
2022-10-18T08:40:45.055Z,37.74
2022-10-18T08:43:57.662Z,37.70
2022-10-18T08:47:05.513Z,37.36
2022-10-18T08:50:15.971Z,38.17
2022-10-18T08:53:25.273Z,37.78
2022-10-18T08:56:28.835Z,37.26
2022-10-18T08:59:40.337Z,36.44
2022-10-18T09:02:57.500Z,36.39
2022-10-18T09:06:11.289Z,36.90
2022-10-18T09:09:37.017Z,36.43
2022-10-18T09:12:56.368Z,36.83
2022-10-18T09:16:02.730Z,36.64
2022-10-18T09:19:15.147Z,37.92
2022-10-18T09:22:20.681Z,36.93
2022-10-18T09:25:26.886Z,37.05
2022-10-18T09:28:53.474Z,36.76
2022-10-18T09:32:12.877Z,36.83
2022-10-18T09:35:22.869Z,37.57
2022-10-18T09:38:32.762Z,38.15
2022-10-18T09:41:41.748Z,36.75
2022-10-18T09:44:49.791Z,36.48
2022-10-18T09:48:03.376Z,37.41
2022-10-18T09:51:12.541Z,36.97
2022-10-18T09:54:22.332Z,36.48
2022-10-18T09:57:32.712Z,35.81
2022-10-18T10:00:39.530Z,35.86
2022-10-18T10:03:44.297Z,36.46
2022-10-18T10:06:52.187Z,35.99
2022-10-18T10:09:58.777Z,36.75
2022-10-18T10:13:07.928Z,36.13
2022-10-18T10:16:11.482Z,35.26
2022-10-18T10:19:25.613Z,35.19
2022-10-18T10:22:34.839Z,35.49
2022-10-18T10:25:42.346Z,35.10
2022-10-18T10:28:49.155Z,35.19
2022-10-18T10:32:03.851Z,35.03
2022-10-18T10:35:34.059Z,34.14
2022-10-18T10:38:46.157Z,34.29
2022-10-18T10:41:51.642Z,33.75
2022-10-18T10:44:56.663Z,33.19
2022-10-18T10:48:17.232Z,33.56
2022-10-18T10:51:31.311Z,33.52
2022-10-18T10:54:51.201Z,33.66
2022-10-18T10:57:57.346Z,32.78
2022-10-18T11:01:19.146Z,32.66
2022-10-18T11:04:28.274Z,32.82
2022-10-18T11:07:37.093Z,32.24
2022-10-18T11:10:53.931Z,31.85
2022-10-18T11:14:21.109Z,31.64
2022-10-18T11:17:33.992Z,31.23
2022-10-18T11:20:42.037Z,31.63
2022-10-18T11:23:47.398Z,31.68
2022-10-18T11:26:55.992Z,31.33
2022-10-18T11:30:15.460Z,31.42
2022-10-18T11:33:50.325Z,31.42
2022-10-18T11:37:27.063Z,31.74
2022-10-18T11:40:43.839Z,30.78
2022-10-18T11:44:03.008Z,29.48
2022-10-18T11:47:15.223Z,27.48
2022-10-18T11:50:29.847Z,26.86
2022-10-18T11:53:39.928Z,26.29
2022-10-18T11:56:53.467Z,25.74
2022-10-18T12:00:10.214Z,22.79
2022-10-18T12:03:34.397Z,24.47
2022-10-18T12:06:40.057Z,24.82
2022-10-18T12:12:58.448Z,26.16
2022-10-18T12:16:05.315Z,26.05
2022-10-18T12:19:22.106Z,25.03
2022-10-18T12:22:34.341Z,24.38
2022-10-18T12:25:41.556Z,23.54
2022-10-18T12:28:56.280Z,24.58
2022-10-18T12:32:02.972Z,23.51
2022-10-18T12:35:13.744Z,23.28
2022-10-18T12:38:22.653Z,22.81
2022-10-18T12:41:29.186Z,24.22
2022-10-18T12:44:35.456Z,22.57
2022-10-18T12:47:38.759Z,23.01
2022-10-18T12:50:45.020Z,24.20
2022-10-18T12:53:50.805Z,24.58
2022-10-18T12:56:54.038Z,24.69
2022-10-18T12:59:58.699Z,24.83
2022-10-18T13:03:34.847Z,24.88
2022-10-18T13:07:16.299Z,24.45
2022-10-18T13:10:36.053Z,24.39
2022-10-18T13:13:54.334Z,24.94
2022-10-18T13:17:05.769Z,24.13
2022-10-18T13:20:27.318Z,24.14
2022-10-18T13:23:44.799Z,23.58
2022-10-18T13:27:24.401Z,23.10
2022-10-18T13:30:41.048Z,24.04
2022-10-18T13:33:45.783Z,23.91
2022-10-18T13:36:57.926Z,24.43
2022-10-18T13:40:23.978Z,24.83
2022-10-18T13:44:00.606Z,24.15
2022-10-18T13:47:15.365Z,24.46
2022-10-18T13:50:45.699Z,23.78
2022-10-18T13:53:59.039Z,23.37
2022-10-18T13:57:18.566Z,24.35
2022-10-18T14:00:48.793Z,24.93
2022-10-18T14:04:21.012Z,25.54
2022-10-18T14:07:28.330Z,26.23
2022-10-18T14:10:57.226Z,26.19
2022-10-18T14:14:14.318Z,26.20
2022-10-18T14:17:28.358Z,27.14
2022-10-18T14:20:49.082Z,27.30
2022-10-18T14:23:54.661Z,28.07
2022-10-18T14:27:17.634Z,28.38
2022-10-18T14:30:22.192Z,28.31
2022-10-18T14:33:28.271Z,28.69
2022-10-18T14:36:38.738Z,28.84
2022-10-18T14:39:43.404Z,29.03
2022-10-18T14:42:49.994Z,29.73
2022-10-18T14:45:53.253Z,29.49
2022-10-18T14:48:59.593Z,29.75
2022-10-18T14:52:03.658Z,29.94
2022-10-18T14:55:20.251Z,30.06
2022-10-18T14:58:25.465Z,30.13
2022-10-18T15:01:31.986Z,30.25
2022-10-18T15:04:35.898Z,30.66
2022-10-18T15:07:39.912Z,30.63
2022-10-18T15:10:46.223Z,30.52
2022-10-18T15:13:55.076Z,30.91
2022-10-18T15:17:04.439Z,31.00
2022-10-18T15:20:22.776Z,31.22
2022-10-18T15:23:31.384Z,31.33
2022-10-18T15:26:47.232Z,31.88
2022-10-18T15:29:51.673Z,32.21
2022-10-18T15:32:58.233Z,32.62
2022-10-18T15:36:10.910Z,32.69
2022-10-18T15:39:19.487Z,32.85
2022-10-18T15:42:40.095Z,33.22
2022-10-18T15:49:20.990Z,33.66
2022-10-18T15:52:37.799Z,34.44
2022-10-18T15:55:55.335Z,34.89
2022-10-18T15:59:05.064Z,35.34
2022-10-18T16:02:13.657Z,35.55
2022-10-18T16:05:18.002Z,36.69
2022-10-18T16:08:24.271Z,37.14
2022-10-18T16:11:28.382Z,37.10
2022-10-18T16:14:33.374Z,36.79
2022-10-18T16:17:39.123Z,37.24
2022-10-18T16:20:42.656Z,38.42
2022-10-18T16:23:45.976Z,38.63
2022-10-18T16:27:01.404Z,38.66
2022-10-18T16:30:13.383Z,38.95
2022-10-18T16:33:19.265Z,38.63
2022-10-18T16:36:26.763Z,39.07
2022-10-18T16:39:34.760Z,39.95
2022-10-18T16:42:38.275Z,39.97
2022-10-18T16:45:43.123Z,40.26
2022-10-18T16:48:47.489Z,40.08
2022-10-18T16:51:50.883Z,40.02
2022-10-18T16:54:54.239Z,42.19
2022-10-18T16:57:57.560Z,42.95
2022-10-18T17:01:04.229Z,43.30
2022-10-18T17:04:10.131Z,43.03
2022-10-18T17:07:23.600Z,42.83
2022-10-18T17:10:27.747Z,43.52
2022-10-18T17:13:31.139Z,43.70
2022-10-18T17:16:38.936Z,44.30
2022-10-18T17:19:42.579Z,43.92
2022-10-18T17:22:45.784Z,43.66
2022-10-18T17:26:04.744Z,44.04
2022-10-18T17:29:12.244Z,44.00
2022-10-18T17:32:17.025Z,44.34
2022-10-18T17:35:20.483Z,45.20
2022-10-18T17:38:23.680Z,44.67
2022-10-18T17:41:27.363Z,45.20
2022-10-18T17:44:30.715Z,45.93
2022-10-18T17:47:35.736Z,46.71
2022-10-18T17:50:41.398Z,46.00
2022-10-18T17:53:45.131Z,46.38
2022-10-18T17:56:52.199Z,45.28
2022-10-18T17:59:59.042Z,45.63
2022-10-18T18:03:03.919Z,45.32
2022-10-18T18:06:15.658Z,44.77
2022-10-18T18:09:19.308Z,43.92
2022-10-18T18:12:22.538Z,43.63
2022-10-18T18:15:26.067Z,43.30
2022-10-18T18:18:30.867Z,42.96
2022-10-18T18:21:34.953Z,43.09
2022-10-18T18:24:38.263Z,42.78
2022-10-18T18:27:41.531Z,42.92
2022-10-18T18:30:44.780Z,43.19
2022-10-18T18:33:49.471Z,43.54
2022-10-18T18:36:53.056Z,44.08
2022-10-18T18:39:56.364Z,43.54
2022-10-18T18:43:07.269Z,44.06
2022-10-18T18:46:22.958Z,43.87
2022-10-18T18:49:28.231Z,43.83
2022-10-18T18:52:31.837Z,44.35
2022-10-18T18:55:39.756Z,44.44
2022-10-18T18:58:44.196Z,44.30
2022-10-18T19:01:47.553Z,44.68
2022-10-18T19:04:52.197Z,45.29
2022-10-18T19:07:55.494Z,45.16
2022-10-18T19:10:58.779Z,46.34
2022-10-18T19:14:03.235Z,45.68
2022-10-18T19:17:07.954Z,46.74
2022-10-18T19:20:15.151Z,46.12
2022-10-18T19:23:18.437Z,46.12
2022-10-18T19:26:37.955Z,46.38
2022-10-18T19:29:42.074Z,46.76
2022-10-18T19:32:45.316Z,48.79
2022-10-18T19:35:49.969Z,47.59
2022-10-18T19:38:53.152Z,48.27
2022-10-18T19:41:58.576Z,48.38
2022-10-18T19:45:03.065Z,47.78
2022-10-18T19:48:07.152Z,48.68
2022-10-18T19:51:16.005Z,47.58
2022-10-18T19:54:23.900Z,47.42
2022-10-18T19:57:27.243Z,47.69
2022-10-18T20:00:30.646Z,47.36
2022-10-18T20:03:33.893Z,47.80
2022-10-18T20:06:39.614Z,49.02
2022-10-18T20:09:42.834Z,50.19
2022-10-18T20:12:49.776Z,48.83
2022-10-18T20:15:53.607Z,49.35
2022-10-18T20:18:58.685Z,47.49
2022-10-18T20:22:03.294Z,46.55
2022-10-18T20:25:07.024Z,47.42
2022-10-18T20:28:10.431Z,46.66
2022-10-18T20:31:15.587Z,46.40
2022-10-18T20:34:21.578Z,46.12
2022-10-18T20:37:26.234Z,46.14
2022-10-18T20:40:29.538Z,45.96
2022-10-18T20:43:32.854Z,46.34
2022-10-18T20:46:38.357Z,45.91
2022-10-18T20:49:41.657Z,45.79
2022-10-18T20:52:51.167Z,45.51
2022-10-18T20:56:02.881Z,45.90
2022-10-18T20:59:09.478Z,46.14
2022-10-18T21:02:14.419Z,46.41
2022-10-18T21:05:18.454Z,46.28
2022-10-18T21:08:23.121Z,46.45
2022-10-18T21:11:27.767Z,46.35
2022-10-18T21:14:31.084Z,46.22
2022-10-18T21:17:34.503Z,46.76
2022-10-18T21:20:37.862Z,46.21
2022-10-18T21:23:42.983Z,46.98
2022-10-18T21:26:46.518Z,47.33
2022-10-18T21:29:50.163Z,47.58
2022-10-18T21:32:53.380Z,47.18
2022-10-18T21:35:56.634Z,46.66
2022-10-18T21:39:01.508Z,46.39
2022-10-18T21:42:04.809Z,46.24
2022-10-18T21:45:09.279Z,46.12
2022-10-18T21:48:12.640Z,46.29
2022-10-18T21:51:18.783Z,46.51
2022-10-18T21:54:23.938Z,46.22
2022-10-18T21:57:27.429Z,45.53
2022-10-18T22:00:30.656Z,45.76
2022-10-18T22:03:33.934Z,46.51
2022-10-18T22:06:37.690Z,45.91
2022-10-18T22:09:42.345Z,46.10
2022-10-18T22:12:45.690Z,46.01
2022-10-18T22:15:48.943Z,45.98
2022-10-18T22:18:53.173Z,46.36
2022-10-18T22:21:56.427Z,46.03
2022-10-18T22:25:01.192Z,46.38
2022-10-18T22:28:04.486Z,46.14
2022-10-18T22:31:08.051Z,46.15
2022-10-18T22:34:14.061Z,46.22
2022-10-18T22:37:17.282Z,45.94
2022-10-18T22:40:21.959Z,46.03
2022-10-18T22:43:25.271Z,45.67
2022-10-18T22:46:28.988Z,45.95
2022-10-18T22:49:32.250Z,46.15
2022-10-18T22:52:35.930Z,46.22
2022-10-18T22:55:40.687Z,46.53
2022-10-18T22:58:43.945Z,46.72
2022-10-18T23:01:47.223Z,47.27
2022-10-18T23:04:50.454Z,47.02
2022-10-18T23:07:53.634Z,47.20
2022-10-18T23:11:00.154Z,47.25
2022-10-18T23:14:04.267Z,47.81
2022-10-18T23:17:07.470Z,47.81
2022-10-18T23:20:11.476Z,48.38
2022-10-18T23:23:15.216Z,47.69
2022-10-18T23:26:22.808Z,47.85
2022-10-18T23:29:26.012Z,47.84
2022-10-18T23:32:29.658Z,47.88
2022-10-18T23:35:32.916Z,47.81
2022-10-18T23:38:36.675Z,48.19
2022-10-18T23:41:41.241Z,48.56
2022-10-18T23:44:45.290Z,48.43
2022-10-18T23:47:48.553Z,47.92
2022-10-18T23:50:51.792Z,48.32
2022-10-18T23:53:54.985Z,47.72
2022-10-18T23:56:59.634Z,47.56
